sensor_id;sensor_type;location;lat;lon;timestamp;pressure;altitude;pressure_sealevel;temperature;humidity
65013;BME280;51715;39.432;-77.518;2023-06-24T00:01:34;99201.55;;;27.89;44.67
65013;BME280;51715;39.432;-77.518;2023-06-24T00:04:03;99197.55;;;28.39;44.52
65013;BME280;51715;39.432;-77.518;2023-06-24T00:06:31;99193.88;;;28.07;44.81
65013;BME280;51715;39.432;-77.518;2023-06-24T00:09:00;99194.88;;;28.35;44.91
65013;BME280;51715;39.432;-77.518;2023-06-24T00:11:29;99192.41;;;28.06;44.88
65013;BME280;51715;39.432;-77.518;2023-06-24T00:13:58;99192.41;;;28.06;44.66
65013;BME280;51715;39.432;-77.518;2023-06-24T00:16:27;99188.46;;;27.99;44.72
65013;BME280;51715;39.432;-77.518;2023-06-24T00:18:55;99185.20;;;27.99;44.86
65013;BME280;51715;39.432;-77.518;2023-06-24T00:21:24;99179.42;;;27.94;45.04
65013;BME280;51715;39.432;-77.518;2023-06-24T00:23:52;99176.78;;;27.96;45.07
65013;BME280;51715;39.432;-77.518;2023-06-24T00:26:21;99173.46;;;28.23;45.10
65013;BME280;51715;39.432;-77.518;2023-06-24T00:28:49;99172.61;;;27.74;45.00
65013;BME280;51715;39.432;-77.518;2023-06-24T00:31:17;99172.84;;;27.89;44.95
65013;BME280;51715;39.432;-77.518;2023-06-24T00:33:45;99176.05;;;28.15;44.84
65013;BME280;51715;39.432;-77.518;2023-06-24T00:36:13;99173.28;;;27.62;44.72
65013;BME280;51715;39.432;-77.518;2023-06-24T00:38:42;99170.28;;;27.67;45.01
65013;BME280;51715;39.432;-77.518;2023-06-24T00:41:10;99170.79;;;27.64;44.78
65013;BME280;51715;39.432;-77.518;2023-06-24T00:43:38;99177.34;;;27.51;45.38
65013;BME280;51715;39.432;-77.518;2023-06-24T00:46:06;99179.94;;;27.53;45.58
65013;BME280;51715;39.432;-77.518;2023-06-24T00:48:35;99176.33;;;27.59;45.31
65013;BME280;51715;39.432;-77.518;2023-06-24T00:51:03;99175.59;;;27.58;45.47
65013;BME280;51715;39.432;-77.518;2023-06-24T00:53:32;99174.72;;;27.61;45.29
65013;BME280;51715;39.432;-77.518;2023-06-24T00:56:00;99181.62;;;27.29;45.35
65013;BME280;51715;39.432;-77.518;2023-06-24T00:58:30;99186.39;;;27.47;45.25
65013;BME280;51715;39.432;-77.518;2023-06-24T01:00:59;99189.03;;;27.46;45.15
65013;BME280;51715;39.432;-77.518;2023-06-24T01:03:28;99193.24;;;27.20;45.56
65013;BME280;51715;39.432;-77.518;2023-06-24T01:05:57;99197.72;;;27.09;45.83
65013;BME280;51715;39.432;-77.518;2023-06-24T01:08:26;99202.23;;;27.11;45.89
65013;BME280;51715;39.432;-77.518;2023-06-24T01:10:54;99196.02;;;27.11;45.81
65013;BME280;51715;39.432;-77.518;2023-06-24T01:13:22;99196.39;;;27.13;45.83
65013;BME280;51715;39.432;-77.518;2023-06-24T01:15:50;99192.58;;;27.19;45.86
65013;BME280;51715;39.432;-77.518;2023-06-24T01:18:24;99192.98;;;27.18;45.85
65013;BME280;51715;39.432;-77.518;2023-06-24T01:20:59;99196.74;;;27.48;46.04
65013;BME280;51715;39.432;-77.518;2023-06-24T01:24:02;99202.12;;;27.23;46.20
65013;BME280;51715;39.432;-77.518;2023-06-24T01:26:59;99199.38;;;27.08;46.12
65013;BME280;51715;39.432;-77.518;2023-06-24T01:29:48;99198.08;;;27.19;45.77
65013;BME280;51715;39.432;-77.518;2023-06-24T01:32:23;99205.85;;;27.48;45.70
65013;BME280;51715;39.432;-77.518;2023-06-24T01:34:56;99209.80;;;27.22;45.72
65013;BME280;51715;39.432;-77.518;2023-06-24T01:37:29;99211.57;;;27.21;45.82
65013;BME280;51715;39.432;-77.518;2023-06-24T01:40:08;99215.96;;;27.20;45.81
65013;BME280;51715;39.432;-77.518;2023-06-24T01:42:38;99216.63;;;27.21;45.78
65013;BME280;51715;39.432;-77.518;2023-06-24T01:45:09;99216.74;;;27.23;45.76
65013;BME280;51715;39.432;-77.518;2023-06-24T01:47:38;99220.47;;;27.16;45.73
65013;BME280;51715;39.432;-77.518;2023-06-24T01:50:10;99224.56;;;27.16;45.80
65013;BME280;51715;39.432;-77.518;2023-06-24T01:52:43;99230.56;;;27.13;45.87
65013;BME280;51715;39.432;-77.518;2023-06-24T01:55:16;99227.78;;;27.13;45.92
65013;BME280;51715;39.432;-77.518;2023-06-24T01:57:47;99229.86;;;27.17;45.81
65013;BME280;51715;39.432;-77.518;2023-06-24T02:00:17;99223.47;;;27.19;45.73
65013;BME280;51715;39.432;-77.518;2023-06-24T02:02:48;99221.12;;;27.18;45.71
65013;BME280;51715;39.432;-77.518;2023-06-24T02:05:18;99224.25;;;27.17;45.68
65013;BME280;51715;39.432;-77.518;2023-06-24T02:07:49;99226.83;;;27.14;45.83
65013;BME280;51715;39.432;-77.518;2023-06-24T02:10:20;99224.93;;;27.13;45.92
65013;BME280;51715;39.432;-77.518;2023-06-24T02:12:52;99223.81;;;27.13;45.91
65013;BME280;51715;39.432;-77.518;2023-06-24T02:15:20;99223.89;;;27.24;45.73
65013;BME280;51715;39.432;-77.518;2023-06-24T02:17:50;99222.41;;;27.31;45.50
65013;BME280;51715;39.432;-77.518;2023-06-24T02:20:19;99220.15;;;27.27;45.57
65013;BME280;51715;39.432;-77.518;2023-06-24T02:22:49;99222.25;;;27.24;45.69
65013;BME280;51715;39.432;-77.518;2023-06-24T02:25:17;99221.08;;;27.19;45.62
65013;BME280;51715;39.432;-77.518;2023-06-24T02:27:46;99219.51;;;27.41;45.65
65013;BME280;51715;39.432;-77.518;2023-06-24T02:30:15;99220.49;;;27.17;45.65
65013;BME280;51715;39.432;-77.518;2023-06-24T02:32:43;99220.37;;;27.16;45.68
65013;BME280;51715;39.432;-77.518;2023-06-24T02:35:11;99220.48;;;27.10;45.80
65013;BME280;51715;39.432;-77.518;2023-06-24T02:37:40;99225.08;;;27.28;46.00
65013;BME280;51715;39.432;-77.518;2023-06-24T02:40:09;99225.43;;;27.06;46.00
65013;BME280;51715;39.432;-77.518;2023-06-24T02:42:37;99227.36;;;27.30;46.04
65013;BME280;51715;39.432;-77.518;2023-06-24T02:45:06;99228.52;;;27.15;45.92
65013;BME280;51715;39.432;-77.518;2023-06-24T02:47:36;99227.45;;;27.19;45.75
65013;BME280;51715;39.432;-77.518;2023-06-24T02:50:07;99224.06;;;27.18;45.76
65013;BME280;51715;39.432;-77.518;2023-06-24T02:52:36;99223.89;;;27.23;45.71
65013;BME280;51715;39.432;-77.518;2023-06-24T02:55:06;99226.46;;;27.34;45.76
65013;BME280;51715;39.432;-77.518;2023-06-24T02:57:35;99229.75;;;27.33;46.13
65013;BME280;51715;39.432;-77.518;2023-06-24T03:00:04;99227.31;;;26.89;46.29
65013;BME280;51715;39.432;-77.518;2023-06-24T03:02:33;99223.63;;;26.92;46.24
65013;BME280;51715;39.432;-77.518;2023-06-24T03:05:01;99224.97;;;27.14;46.24
65013;BME280;51715;39.432;-77.518;2023-06-24T03:07:31;99223.53;;;26.88;46.29
65013;BME280;51715;39.432;-77.518;2023-06-24T03:09:59;99224.59;;;27.35;46.29
65013;BME280;51715;39.432;-77.518;2023-06-24T03:12:28;99225.37;;;27.30;46.32
65013;BME280;51715;39.432;-77.518;2023-06-24T03:14:56;99224.54;;;27.08;46.44
65013;BME280;51715;39.432;-77.518;2023-06-24T03:17:24;99225.06;;;26.90;46.37
65013;BME280;51715;39.432;-77.518;2023-06-24T03:19:53;99230.13;;;26.90;46.37
65013;BME280;51715;39.432;-77.518;2023-06-24T03:22:22;99231.98;;;26.95;46.32
65013;BME280;51715;39.432;-77.518;2023-06-24T03:24:50;99230.72;;;26.95;46.32
65013;BME280;51715;39.432;-77.518;2023-06-24T03:27:18;99229.17;;;26.94;46.32
65013;BME280;51715;39.432;-77.518;2023-06-24T03:29:47;99229.03;;;27.15;46.30
65013;BME280;51715;39.432;-77.518;2023-06-24T03:32:16;99227.44;;;26.96;46.27
65013;BME280;51715;39.432;-77.518;2023-06-24T03:34:44;99225.76;;;26.97;46.25
65013;BME280;51715;39.432;-77.518;2023-06-24T03:37:12;99221.65;;;26.99;46.26
65013;BME280;51715;39.432;-77.518;2023-06-24T03:39:40;99220.68;;;27.00;46.11
65013;BME280;51715;39.432;-77.518;2023-06-24T03:42:08;99225.60;;;26.92;46.21
65013;BME280;51715;39.432;-77.518;2023-06-24T03:44:36;99222.59;;;27.28;46.31
65013;BME280;51715;39.432;-77.518;2023-06-24T03:47:04;99224.20;;;27.03;46.41
65013;BME280;51715;39.432;-77.518;2023-06-24T03:49:33;99221.71;;;26.87;46.36
65013;BME280;51715;39.432;-77.518;2023-06-24T03:52:01;99215.48;;;26.90;46.33
65013;BME280;51715;39.432;-77.518;2023-06-24T03:54:29;99215.49;;;26.88;46.36
65013;BME280;51715;39.432;-77.518;2023-06-24T03:56:57;99217.81;;;26.84;46.42
65013;BME280;51715;39.432;-77.518;2023-06-24T03:59:25;99218.08;;;26.83;46.45
65013;BME280;51715;39.432;-77.518;2023-06-24T04:04:08;99216.02;;;27.14;45.09
65013;BME280;51715;39.432;-77.518;2023-06-24T04:06:41;99213.58;;;26.89;44.99
65013;BME280;51715;39.432;-77.518;2023-06-24T04:09:10;99210.82;;;27.19;44.84
65013;BME280;51715;39.432;-77.518;2023-06-24T04:11:38;99207.29;;;27.21;44.84
65013;BME280;51715;39.432;-77.518;2023-06-24T04:14:06;99209.21;;;27.21;45.07
65013;BME280;51715;39.432;-77.518;2023-06-24T04:16:35;99206.72;;;27.49;45.52
65013;BME280;51715;39.432;-77.518;2023-06-24T04:19:03;99200.96;;;27.18;45.67
65013;BME280;51715;39.432;-77.518;2023-06-24T04:21:32;99200.81;;;27.12;45.74
65013;BME280;51715;39.432;-77.518;2023-06-24T04:24:00;99197.81;;;27.12;45.80
65013;BME280;51715;39.432;-77.518;2023-06-24T04:26:28;99191.17;;;27.11;45.72
65013;BME280;51715;39.432;-77.518;2023-06-24T04:28:57;99182.53;;;27.08;45.76
65013;BME280;51715;39.432;-77.518;2023-06-24T04:31:25;99186.52;;;27.27;45.70
65013;BME280;51715;39.432;-77.518;2023-06-24T04:33:53;99187.43;;;27.00;45.71
65013;BME280;51715;39.432;-77.518;2023-06-24T04:36:21;99182.32;;;26.95;45.74
65013;BME280;51715;39.432;-77.518;2023-06-24T04:38:49;99186.74;;;27.06;45.81
65013;BME280;51715;39.432;-77.518;2023-06-24T04:41:17;99191.40;;;26.64;46.59
65013;BME280;51715;39.432;-77.518;2023-06-24T04:43:46;99193.44;;;26.78;46.88
65013;BME280;51715;39.432;-77.518;2023-06-24T04:46:14;99194.16;;;26.57;46.86
65013;BME280;51715;39.432;-77.518;2023-06-24T04:48:42;99192.39;;;26.79;46.87
65013;BME280;51715;39.432;-77.518;2023-06-24T04:51:10;99184.37;;;26.83;46.87
65013;BME280;51715;39.432;-77.518;2023-06-24T04:53:38;99179.91;;;26.85;46.76
65013;BME280;51715;39.432;-77.518;2023-06-24T04:56:06;99179.64;;;26.85;46.62
65013;BME280;51715;39.432;-77.518;2023-06-24T04:58:34;99176.14;;;26.87;46.73
65013;BME280;51715;39.432;-77.518;2023-06-24T05:01:03;99171.15;;;26.86;46.67
65013;BME280;51715;39.432;-77.518;2023-06-24T05:03:31;99173.39;;;26.59;46.54
65013;BME280;51715;39.432;-77.518;2023-06-24T05:06:00;99172.19;;;26.49;46.61
65013;BME280;51715;39.432;-77.518;2023-06-24T05:08:28;99170.07;;;26.70;46.71
65013;BME280;51715;39.432;-77.518;2023-06-24T05:10:56;99163.68;;;26.73;46.69
65013;BME280;51715;39.432;-77.518;2023-06-24T05:13:24;99162.49;;;27.19;46.62
65013;BME280;51715;39.432;-77.518;2023-06-24T05:15:53;99159.80;;;26.61;46.70
65013;BME280;51715;39.432;-77.518;2023-06-24T05:18:21;99154.22;;;26.63;46.72
65013;BME280;51715;39.432;-77.518;2023-06-24T05:20:49;99148.62;;;26.63;46.85
65013;BME280;51715;39.432;-77.518;2023-06-24T05:23:18;99147.80;;;26.63;46.76
65013;BME280;51715;39.432;-77.518;2023-06-24T05:25:46;99152.36;;;26.62;46.79
65013;BME280;51715;39.432;-77.518;2023-06-24T05:28:14;99151.26;;;26.64;46.77
65013;BME280;51715;39.432;-77.518;2023-06-24T05:30:44;99152.52;;;26.64;46.72
65013;BME280;51715;39.432;-77.518;2023-06-24T05:33:12;99154.47;;;26.66;46.70
65013;BME280;51715;39.432;-77.518;2023-06-24T05:35:42;99156.02;;;26.68;46.62
65013;BME280;51715;39.432;-77.518;2023-06-24T05:38:11;99151.99;;;26.69;46.56
65013;BME280;51715;39.432;-77.518;2023-06-24T05:40:40;99150.81;;;26.47;46.51
65013;BME280;51715;39.432;-77.518;2023-06-24T05:43:09;99152.92;;;26.67;46.41
65013;BME280;51715;39.432;-77.518;2023-06-24T05:45:37;99156.25;;;26.55;46.54
65013;BME280;51715;39.432;-77.518;2023-06-24T05:48:07;99157.94;;;26.21;46.80
65013;BME280;51715;39.432;-77.518;2023-06-24T05:50:35;99152.82;;;26.29;47.13
65013;BME280;51715;39.432;-77.518;2023-06-24T05:53:04;99152.61;;;26.25;47.27
65013;BME280;51715;39.432;-77.518;2023-06-24T05:55:32;99151.44;;;26.13;47.50
65013;BME280;51715;39.432;-77.518;2023-06-24T05:58:00;99148.13;;;26.05;47.66
65013;BME280;51715;39.432;-77.518;2023-06-24T06:00:28;99148.14;;;26.00;47.77
65013;BME280;51715;39.432;-77.518;2023-06-24T06:02:57;99146.19;;;25.95;47.89
65013;BME280;51715;39.432;-77.518;2023-06-24T06:05:25;99144.76;;;26.21;48.07
65013;BME280;51715;39.432;-77.518;2023-06-24T06:07:53;99146.13;;;25.94;48.14
65013;BME280;51715;39.432;-77.518;2023-06-24T06:10:22;99145.26;;;26.16;48.30
65013;BME280;51715;39.432;-77.518;2023-06-24T06:12:50;99146.70;;;26.14;48.51
65013;BME280;51715;39.432;-77.518;2023-06-24T06:15:19;99146.22;;;25.88;48.60
65013;BME280;51715;39.432;-77.518;2023-06-24T06:17:47;99142.95;;;26.16;48.58
65013;BME280;51715;39.432;-77.518;2023-06-24T06:20:16;99143.00;;;26.18;48.55
65013;BME280;51715;39.432;-77.518;2023-06-24T06:22:44;99140.98;;;25.92;48.53
65013;BME280;51715;39.432;-77.518;2023-06-24T06:25:12;99136.04;;;26.20;48.52
65013;BME280;51715;39.432;-77.518;2023-06-24T06:27:40;99133.66;;;25.93;48.64
65013;BME280;51715;39.432;-77.518;2023-06-24T06:30:09;99130.73;;;25.99;48.60
65013;BME280;51715;39.432;-77.518;2023-06-24T06:32:38;99128.88;;;26.08;48.40
65013;BME280;51715;39.432;-77.518;2023-06-24T06:35:07;99129.46;;;26.09;48.51
65013;BME280;51715;39.432;-77.518;2023-06-24T06:37:35;99124.46;;;25.98;48.73
65013;BME280;51715;39.432;-77.518;2023-06-24T06:40:05;99123.76;;;25.93;48.78
65013;BME280;51715;39.432;-77.518;2023-06-24T06:42:34;99123.11;;;26.11;48.94
65013;BME280;51715;39.432;-77.518;2023-06-24T06:45:02;99119.11;;;25.80;49.08
65013;BME280;51715;39.432;-77.518;2023-06-24T06:47:30;99120.80;;;25.77;49.18
65013;BME280;51715;39.432;-77.518;2023-06-24T06:49:59;99117.82;;;26.03;49.25
65013;BME280;51715;39.432;-77.518;2023-06-24T06:52:27;99117.98;;;26.02;49.38
65013;BME280;51715;39.432;-77.518;2023-06-24T06:54:56;99116.78;;;25.75;49.45
65013;BME280;51715;39.432;-77.518;2023-06-24T06:57:24;99114.12;;;25.99;49.47
65013;BME280;51715;39.432;-77.518;2023-06-24T06:59:53;99111.47;;;25.70;49.51
65013;BME280;51715;39.432;-77.518;2023-06-24T07:02:21;99108.77;;;26.16;49.58
65013;BME280;51715;39.432;-77.518;2023-06-24T07:04:49;99106.41;;;25.94;49.67
65013;BME280;51715;39.432;-77.518;2023-06-24T07:07:18;99107.92;;;25.94;49.66
65013;BME280;51715;39.432;-77.518;2023-06-24T07:09:46;99106.36;;;25.91;49.72
65013;BME280;51715;39.432;-77.518;2023-06-24T07:12:14;99104.86;;;26.12;49.75
65013;BME280;51715;39.432;-77.518;2023-06-24T07:14:42;99102.17;;;25.62;49.91
65013;BME280;51715;39.432;-77.518;2023-06-24T07:17:11;99098.06;;;25.88;49.97
65013;BME280;51715;39.432;-77.518;2023-06-24T07:19:39;99092.19;;;25.63;49.90
65013;BME280;51715;39.432;-77.518;2023-06-24T07:22:07;99088.33;;;25.90;49.93
65013;BME280;51715;39.432;-77.518;2023-06-24T07:24:36;99089.08;;;25.64;50.02
65013;BME280;51715;39.432;-77.518;2023-06-24T07:27:04;99091.88;;;25.69;50.04
65013;BME280;51715;39.432;-77.518;2023-06-24T07:29:33;99089.17;;;26.18;50.00
65013;BME280;51715;39.432;-77.518;2023-06-24T07:32:02;99091.31;;;25.98;50.00
65013;BME280;51715;39.432;-77.518;2023-06-24T07:34:30;99095.54;;;26.25;49.79
65013;BME280;51715;39.432;-77.518;2023-06-24T07:36:58;99096.20;;;25.72;49.65
65013;BME280;51715;39.432;-77.518;2023-06-24T07:39:27;99090.88;;;26.12;49.79
65013;BME280;51715;39.432;-77.518;2023-06-24T07:41:55;99086.38;;;25.91;49.90
65013;BME280;51715;39.432;-77.518;2023-06-24T07:44:24;99084.39;;;26.22;49.72
65013;BME280;51715;39.432;-77.518;2023-06-24T07:46:52;99084.50;;;25.76;49.68
65013;BME280;51715;39.432;-77.518;2023-06-24T07:49:20;99084.81;;;26.07;49.81
65013;BME280;51715;39.432;-77.518;2023-06-24T07:51:49;99080.94;;;25.86;49.71
65013;BME280;51715;39.432;-77.518;2023-06-24T07:54:17;99076.74;;;25.92;49.64
65013;BME280;51715;39.432;-77.518;2023-06-24T07:56:45;99076.08;;;25.98;49.60
65013;BME280;51715;39.432;-77.518;2023-06-24T07:59:14;99079.27;;;26.06;49.49
65013;BME280;51715;39.432;-77.518;2023-06-24T08:01:42;99081.36;;;26.07;49.45
65013;BME280;51715;39.432;-77.518;2023-06-24T08:04:10;99083.71;;;26.01;49.50
65013;BME280;51715;39.432;-77.518;2023-06-24T08:06:38;99083.70;;;25.98;49.52
65013;BME280;51715;39.432;-77.518;2023-06-24T08:09:07;99084.88;;;25.94;49.56
65013;BME280;51715;39.432;-77.518;2023-06-24T08:11:35;99080.54;;;25.93;49.60
65013;BME280;51715;39.432;-77.518;2023-06-24T08:14:04;99074.82;;;25.87;49.61
65013;BME280;51715;39.432;-77.518;2023-06-24T08:16:32;99069.65;;;25.86;49.65
65013;BME280;51715;39.432;-77.518;2023-06-24T08:19:01;99070.09;;;25.90;49.73
65013;BME280;51715;39.432;-77.518;2023-06-24T08:21:29;99072.07;;;26.21;49.66
65013;BME280;51715;39.432;-77.518;2023-06-24T08:23:57;99079.75;;;26.21;49.57
65013;BME280;51715;39.432;-77.518;2023-06-24T08:26:25;99084.79;;;25.95;49.63
65013;BME280;51715;39.432;-77.518;2023-06-24T08:28:54;99085.04;;;26.25;49.60
65013;BME280;51715;39.432;-77.518;2023-06-24T08:31:22;99086.86;;;26.02;49.54
65013;BME280;51715;39.432;-77.518;2023-06-24T08:33:53;99082.57;;;26.03;49.45
65013;BME280;51715;39.432;-77.518;2023-06-24T08:36:22;99082.93;;;26.03;49.39
65013;BME280;51715;39.432;-77.518;2023-06-24T08:38:51;99085.30;;;25.99;49.39
65013;BME280;51715;39.432;-77.518;2023-06-24T08:41:19;99090.03;;;25.99;49.52
65013;BME280;51715;39.432;-77.518;2023-06-24T08:43:48;99092.66;;;26.01;49.49
65013;BME280;51715;39.432;-77.518;2023-06-24T08:46:17;99092.76;;;26.02;49.33
65013;BME280;51715;39.432;-77.518;2023-06-24T08:48:46;99094.36;;;25.98;49.28
65013;BME280;51715;39.432;-77.518;2023-06-24T08:51:20;99100.62;;;25.94;49.46
65013;BME280;51715;39.432;-77.518;2023-06-24T08:53:49;99103.25;;;25.92;49.41
65013;BME280;51715;39.432;-77.518;2023-06-24T08:56:18;99106.23;;;25.93;49.50
65013;BME280;51715;39.432;-77.518;2023-06-24T08:58:46;99106.52;;;26.01;49.34
65013;BME280;51715;39.432;-77.518;2023-06-24T09:01:15;99105.31;;;26.07;49.20
65013;BME280;51715;39.432;-77.518;2023-06-24T09:03:43;99104.20;;;26.13;49.09
65013;BME280;51715;39.432;-77.518;2023-06-24T09:06:12;99105.51;;;26.06;49.02
65013;BME280;51715;39.432;-77.518;2023-06-24T09:08:40;99110.46;;;25.92;49.23
65013;BME280;51715;39.432;-77.518;2023-06-24T09:11:10;99109.13;;;25.86;49.30
65013;BME280;51715;39.432;-77.518;2023-06-24T09:13:38;99110.45;;;26.11;49.35
65013;BME280;51715;39.432;-77.518;2023-06-24T09:16:13;99111.32;;;25.82;49.43
65013;BME280;51715;39.432;-77.518;2023-06-24T09:18:41;99113.08;;;26.25;49.55
65013;BME280;51715;39.432;-77.518;2023-06-24T09:21:11;99116.58;;;26.21;49.70
65013;BME280;51715;39.432;-77.518;2023-06-24T09:23:39;99116.23;;;25.75;49.66
65013;BME280;51715;39.432;-77.518;2023-06-24T09:26:10;99111.32;;;26.04;49.67
65013;BME280;51715;39.432;-77.518;2023-06-24T09:28:39;99107.01;;;25.96;49.48
65013;BME280;51715;39.432;-77.518;2023-06-24T09:31:08;99113.15;;;25.72;49.58
65013;BME280;51715;39.432;-77.518;2023-06-24T09:33:37;99116.38;;;26.17;49.57
65013;BME280;51715;39.432;-77.518;2023-06-24T09:36:11;99115.41;;;25.88;49.67
65013;BME280;51715;39.432;-77.518;2023-06-24T09:38:42;99118.43;;;25.60;49.67
65013;BME280;51715;39.432;-77.518;2023-06-24T09:41:11;99118.03;;;25.51;49.77
65013;BME280;51715;39.432;-77.518;2023-06-24T09:43:40;99118.75;;;25.94;49.92
65013;BME280;51715;39.432;-77.518;2023-06-24T09:46:09;99122.22;;;25.69;49.91
65013;BME280;51715;39.432;-77.518;2023-06-24T09:48:37;99120.57;;;25.63;49.85
65013;BME280;51715;39.432;-77.518;2023-06-24T09:51:06;99118.08;;;25.80;49.92
65013;BME280;51715;39.432;-77.518;2023-06-24T09:53:35;99118.83;;;25.77;50.02
65013;BME280;51715;39.432;-77.518;2023-06-24T09:56:05;99123.93;;;25.76;49.96
65013;BME280;51715;39.432;-77.518;2023-06-24T09:58:36;99124.56;;;25.67;49.85
65013;BME280;51715;39.432;-77.518;2023-06-24T10:01:05;99123.90;;;25.59;50.00
65013;BME280;51715;39.432;-77.518;2023-06-24T10:03:36;99126.84;;;25.48;50.04
65013;BME280;51715;39.432;-77.518;2023-06-24T10:06:05;99129.36;;;25.36;50.38
65013;BME280;51715;39.432;-77.518;2023-06-24T10:08:34;99124.82;;;25.41;50.53
65013;BME280;51715;39.432;-77.518;2023-06-24T10:11:03;99126.33;;;25.47;50.50
65013;BME280;51715;39.432;-77.518;2023-06-24T10:13:31;99125.76;;;25.56;50.37
65013;BME280;51715;39.432;-77.518;2023-06-24T10:15:59;99127.73;;;25.61;50.22
65013;BME280;51715;39.432;-77.518;2023-06-24T10:18:36;99128.78;;;25.41;50.12
65013;BME280;51715;39.432;-77.518;2023-06-24T10:21:05;99129.89;;;25.42;50.00
65013;BME280;51715;39.432;-77.518;2023-06-24T10:23:39;99134.51;;;25.64;49.90
65013;BME280;51715;39.432;-77.518;2023-06-24T10:26:09;99135.60;;;25.46;49.79
65013;BME280;51715;39.432;-77.518;2023-06-24T10:29:10;99135.93;;;25.70;49.78
65013;BME280;51715;39.432;-77.518;2023-06-24T10:31:56;99135.61;;;25.66;49.62
65013;BME280;51715;39.432;-77.518;2023-06-24T10:34:33;99138.36;;;25.66;49.62
65013;BME280;51715;39.432;-77.518;2023-06-24T10:37:04;99141.72;;;25.41;49.67
65013;BME280;51715;39.432;-77.518;2023-06-24T10:39:40;99142.14;;;25.59;49.69
65013;BME280;51715;39.432;-77.518;2023-06-24T10:42:41;99144.15;;;25.35;49.76
65013;BME280;51715;39.432;-77.518;2023-06-24T10:45:19;99145.78;;;25.36;49.79
65013;BME280;51715;39.432;-77.518;2023-06-24T10:47:50;99148.06;;;25.55;49.69
65013;BME280;51715;39.432;-77.518;2023-06-24T10:50:20;99154.90;;;25.57;49.76
65013;BME280;51715;39.432;-77.518;2023-06-24T10:52:49;99157.84;;;25.59;49.92
65013;BME280;51715;39.432;-77.518;2023-06-24T10:55:19;99159.94;;;25.60;49.83
65013;BME280;51715;39.432;-77.518;2023-06-24T10:57:47;99160.96;;;25.63;49.96
65013;BME280;51715;39.432;-77.518;2023-06-24T11:00:16;99162.59;;;25.44;49.93
65013;BME280;51715;39.432;-77.518;2023-06-24T11:02:44;99166.45;;;25.26;50.20
65013;BME280;51715;39.432;-77.518;2023-06-24T11:05:12;99168.89;;;25.63;50.45
65013;BME280;51715;39.432;-77.518;2023-06-24T11:07:41;99170.95;;;25.49;50.52
65013;BME280;51715;39.432;-77.518;2023-06-24T11:10:11;99172.82;;;25.85;50.35
65013;BME280;51715;39.432;-77.518;2023-06-24T11:12:41;99177.82;;;25.70;50.37
65013;BME280;51715;39.432;-77.518;2023-06-24T11:15:11;99176.84;;;26.06;50.40
65013;BME280;51715;39.432;-77.518;2023-06-24T11:17:40;99175.97;;;25.87;50.22
65013;BME280;51715;39.432;-77.518;2023-06-24T11:20:11;99175.82;;;25.89;49.81
65013;BME280;51715;39.432;-77.518;2023-06-24T11:22:40;99183.92;;;26.21;49.81
65013;BME280;51715;39.432;-77.518;2023-06-24T11:25:15;99180.58;;;25.98;49.76
65013;BME280;51715;39.432;-77.518;2023-06-24T11:27:44;99179.58;;;26.29;49.73
65013;BME280;51715;39.432;-77.518;2023-06-24T11:30:13;99178.32;;;26.26;49.60
65013;BME280;51715;39.432;-77.518;2023-06-24T11:32:43;99179.56;;;25.96;49.67
65013;BME280;51715;39.432;-77.518;2023-06-24T11:35:12;99181.79;;;26.00;49.89
65013;BME280;51715;39.432;-77.518;2023-06-24T11:37:43;99184.67;;;26.08;50.07
65013;BME280;51715;39.432;-77.518;2023-06-24T11:40:12;99191.29;;;26.16;50.24
65013;BME280;51715;39.432;-77.518;2023-06-24T11:42:42;99196.59;;;26.27;50.24
65013;BME280;51715;39.432;-77.518;2023-06-24T11:45:12;99199.06;;;26.16;50.21
65013;BME280;51715;39.432;-77.518;2023-06-24T11:47:40;99200.56;;;26.48;50.16
65013;BME280;51715;39.432;-77.518;2023-06-24T11:50:10;99199.80;;;26.34;50.06
65013;BME280;51715;39.432;-77.518;2023-06-24T11:52:41;99198.04;;;26.68;49.99
65013;BME280;51715;39.432;-77.518;2023-06-24T11:55:16;99197.34;;;26.29;49.95
65013;BME280;51715;39.432;-77.518;2023-06-24T11:57:55;99195.01;;;26.79;49.97
65013;BME280;51715;39.432;-77.518;2023-06-24T12:00:24;99198.20;;;26.86;50.17
65013;BME280;51715;39.432;-77.518;2023-06-24T12:02:56;99197.13;;;26.94;50.17
65013;BME280;51715;39.432;-77.518;2023-06-24T12:05:25;99195.91;;;26.97;50.04
65013;BME280;51715;39.432;-77.518;2023-06-24T12:07:55;99194.73;;;27.09;50.02
65013;BME280;51715;39.432;-77.518;2023-06-24T12:10:25;99195.33;;;26.73;49.96
65013;BME280;51715;39.432;-77.518;2023-06-24T12:12:55;99196.81;;;26.95;49.57
65013;BME280;51715;39.432;-77.518;2023-06-24T12:15:25;99196.61;;;26.93;49.72
65013;BME280;51715;39.432;-77.518;2023-06-24T12:17:53;99197.98;;;26.78;50.02
65013;BME280;51715;39.432;-77.518;2023-06-24T12:20:23;99200.97;;;26.88;50.17
65013;BME280;51715;39.432;-77.518;2023-06-24T12:22:52;99203.07;;;26.97;50.18
65013;BME280;51715;39.432;-77.518;2023-06-24T12:25:20;99209.92;;;27.08;50.19
65013;BME280;51715;39.432;-77.518;2023-06-24T12:27:49;99214.15;;;27.18;50.01
65013;BME280;51715;39.432;-77.518;2023-06-24T12:30:17;99216.80;;;27.47;49.86
65013;BME280;51715;39.432;-77.518;2023-06-24T12:32:46;99217.65;;;27.21;49.59
65013;BME280;51715;39.432;-77.518;2023-06-24T12:35:14;99220.61;;;27.26;49.00
65013;BME280;51715;39.432;-77.518;2023-06-24T12:37:42;99223.72;;;27.41;48.90
65013;BME280;51715;39.432;-77.518;2023-06-24T12:40:11;99228.07;;;27.22;49.09
65013;BME280;51715;39.432;-77.518;2023-06-24T12:42:39;99225.08;;;27.31;49.29
65013;BME280;51715;39.432;-77.518;2023-06-24T12:45:09;99217.85;;;27.34;50.28
65013;BME280;51715;39.432;-77.518;2023-06-24T12:47:37;99220.37;;;27.47;49.71
65013;BME280;51715;39.432;-77.518;2023-06-24T12:50:07;99219.56;;;27.60;49.48
65013;BME280;51715;39.432;-77.518;2023-06-24T12:52:35;99215.69;;;27.45;49.12
65013;BME280;51715;39.432;-77.518;2023-06-24T12:55:05;99213.81;;;27.52;49.00